This is the latest recevied weather packets stored in our database for station/object OH2TI. If no packets are shown the sender has not sent any weather packets the latest 10 day(s).
| Time | Temp. | Humidity | Pressure | Rain* | Wind** | Luminosity | Snow |
|---|---|---|---|---|---|---|---|
| 1777985959 | 12.22° C | 40% | 1001.2 hPa | - | - | - | - |
| 1777985522 | 11.11° C | 41% | 1001.2 hPa | - | - | - | - |
| 1777984839 | 10.56° C | 45% | 1001.1 hPa | - | - | - | - |
| 1777984311 | 10.56° C | 48% | 1001 hPa | - | - | - | - |
| 1777983512 | 10.56° C | 46% | 1001 hPa | - | - | - | - |
| 1777982899 | 11.67° C | 41% | 1000.8 hPa | - | - | - | - |
| 1777982312 | 11.67° C | 39% | 1000.8 hPa | - | - | - | - |
| 1777981686 | 11.67° C | 44% | 1000.6 hPa | - | - | - | - |
| 1777980861 | 11.11° C | 43% | 1000.3 hPa | - | - | - | - |
| 1777980319 | 12.22° C | 40% | 1000.2 hPa | - | - | - | - |
| 1777979722 | 11.67° C | 41% | 1000.2 hPa | - | - | - | - |
| 1777978959 | 11.11° C | 46% | 1000.1 hPa | - | - | - | - |
| 1777978644 | 11.67° C | 40% | 1000 hPa | - | - | - | - |
| 1777978239 | 11.67° C | 43% | 999.8 hPa | - | - | - | - |
| 1777977389 | 11.67° C | 44% | 999.5 hPa | - | - | - | - |
| 1777976584 | 11.67° C | 46% | 999.5 hPa | - | - | - | - |
| 1777976174 | 11.11° C | 47% | 999.3 hPa | - | - | - | - |
| 1777975734 | 12.22° C | 46% | 999.2 hPa | - | - | - | - |
| 1777975014 | 11.67° C | 46% | 999 hPa | - | - | - | - |
| 1777974349 | 11.11° C | 51% | 998.9 hPa | - | - | - | - |
| 1777973964 | 11.11° C | 52% | 998.8 hPa | - | - | - | - |
| 1777973289 | 12.22° C | 51% | 998.7 hPa | - | - | - | - |
| 1777972554 | 11.11° C | 56% | 998.5 hPa | - | - | - | - |
| 1777972139 | 10.56° C | 65% | 998.6 hPa | - | - | - | - |
| 1777971829 | 11.11° C | 62% | 998.2 hPa | - | - | - | - |
* Rain since midnight (hover to see other rain measurements)
** Current wind speed in m/s (hover to see current wind gust speed)